Time;durP1;ratioP1;P1;durP2;ratioP2;P2;SDS_P1;SDS_P2;PMS_P1;PMS_P2;Temp;Humidity;BMP_temperature;BMP_pressure;BME280_temperature;BME280_humidity;BME280_pressure;Samples;Min_cycle;Max_cycle;Signal;HPM_P1;HPM_P2
2023/11/28 00:00:41;;;;;;;0.40;0.40;;;2.20;99.90;;;;;;2091939;28;20245;-67
2023/11/28 00:01:41;;;;;;;0.50;0.50;;;2.20;99.90;;;;;;2085795;28;20272;-69
2023/11/28 00:02:42;;;;;;;1.27;0.50;;;2.20;99.90;;;;;;2084058;28;20219;-69
2023/11/28 00:03:43;;;;;;;0.77;0.60;;;2.20;99.90;;;;;;2087766;28;20222;-68
2023/11/28 00:04:43;;;;;;;5.50;1.73;;;2.30;99.90;;;;;;2092888;28;20218;-69
2023/11/28 00:05:45;;;;;;;1.77;0.60;;;2.20;99.90;;;;;;2093995;28;20229;-68
2023/11/28 00:06:45;;;;;;;4.60;1.30;;;2.30;99.90;;;;;;2093017;28;20635;-68
2023/11/28 00:07:46;;;;;;;1.13;0.60;;;2.30;99.90;;;;;;2093059;28;20333;-69
2023/11/28 00:08:47;;;;;;;1.47;0.50;;;2.30;99.90;;;;;;2092480;28;20684;-67
2023/11/28 00:09:48;;;;;;;2.27;1.53;;;2.30;99.90;;;;;;2079036;28;20220;-68
2023/11/28 00:10:48;;;;;;;0.90;0.60;;;2.30;99.90;;;;;;2074528;28;20248;-68
2023/11/28 00:11:49;;;;;;;2.07;0.57;;;2.30;99.90;;;;;;2076108;28;20291;-68
2023/11/28 00:12:50;;;;;;;1.17;0.60;;;2.30;99.90;;;;;;2086189;28;20231;-70
2023/11/28 00:13:51;;;;;;;0.73;0.50;;;2.30;99.90;;;;;;2083136;28;20619;-68
2023/11/28 00:14:51;;;;;;;3.28;1.10;;;2.30;99.90;;;;;;2084269;28;20580;-69
2023/11/28 00:15:52;;;;;;;2.80;0.70;;;2.30;99.90;;;;;;2084367;28;20188;-69
2023/11/28 00:16:53;;;;;;;2.90;1.20;;;2.30;99.90;;;;;;2074582;28;20606;-69
2023/11/28 00:17:53;;;;;;;0.67;0.50;;;2.30;99.90;;;;;;2076133;28;20202;-68
2023/11/28 00:18:55;;;;;;;5.63;1.00;;;2.30;99.90;;;;;;2083420;28;20184;-69
2023/11/28 00:19:56;;;;;;;2.90;1.00;;;2.20;99.90;;;;;;2076696;28;20215;-68
2023/11/28 00:20:57;;;;;;;1.43;0.60;;;2.30;99.90;;;;;;2083458;28;20181;-68
2023/11/28 00:21:57;;;;;;;2.60;0.80;;;2.30;99.90;;;;;;2090114;28;20668;-68
2023/11/28 00:22:58;;;;;;;0.57;0.50;;;2.30;99.90;;;;;;2084168;28;20197;-68
2023/11/28 00:24:01;;;;;;;2.57;0.70;;;2.30;99.90;;;;;;2084149;28;20196;-68
2023/11/28 00:25:02;;;;;;;3.65;1.15;;;2.30;99.90;;;;;;2076853;28;20185;-68
2023/11/28 00:26:03;;;;;;;0.40;0.40;;;2.30;99.90;;;;;;2087015;28;20211;-68
2023/11/28 00:27:04;;;;;;;0.50;0.50;;;2.30;99.90;;;;;;2087646;28;20672;-68
2023/11/28 00:28:05;;;;;;;2.00;1.23;;;2.40;99.90;;;;;;2083894;28;20184;-68
2023/11/28 00:29:06;;;;;;;0.90;0.50;;;2.40;99.90;;;;;;2078592;28;20207;-68
2023/11/28 00:30:08;;;;;;;2.57;0.93;;;2.40;99.90;;;;;;2080306;28;20196;-68
2023/11/28 00:31:08;;;;;;;2.50;0.80;;;2.40;99.90;;;;;;2070015;28;20192;-68
2023/11/28 00:32:09;;;;;;;1.03;0.97;;;2.40;99.90;;;;;;2083360;28;22283;-68
2023/11/28 00:33:10;;;;;;;6.33;1.00;;;2.40;99.90;;;;;;2085282;28;20363;-68
2023/11/28 00:34:10;;;;;;;2.03;0.80;;;2.40;99.90;;;;;;2086100;28;20635;-68
2023/11/28 00:35:11;;;;;;;0.63;0.50;;;2.40;99.90;;;;;;2094716;28;20820;-69
2023/11/28 00:36:15;;;;;;;0.40;0.40;;;2.40;99.90;;;;;;2087314;28;20230;-68
2023/11/28 00:37:16;;;;;;;1.95;0.60;;;2.40;99.90;;;;;;2078707;28;20236;-69
2023/11/28 00:38:17;;;;;;;1.10;0.50;;;2.30;99.90;;;;;;2078315;28;20607;-69
2023/11/28 00:39:18;;;;;;;1.23;0.67;;;2.30;99.90;;;;;;2085363;28;20296;-68
2023/11/28 00:40:19;;;;;;;0.40;0.40;;;2.40;99.90;;;;;;2083252;28;20256;-69
2023/11/28 00:41:19;;;;;;;0.50;0.50;;;2.40;99.90;;;;;;2077159;28;20616;-68
2023/11/28 00:42:20;;;;;;;2.10;1.10;;;2.30;99.90;;;;;;2083082;28;20228;-68
2023/11/28 00:43:21;;;;;;;0.40;0.40;;;2.40;99.90;;;;;;2098832;28;20248;-69
2023/11/28 00:44:21;;;;;;;0.33;0.30;;;2.30;99.90;;;;;;2101214;28;20222;-68
2023/11/28 00:45:25;;;;;;;1.13;0.50;;;2.40;99.90;;;;;;2092765;28;20292;-68
2023/11/28 00:46:26;;;;;;;0.40;0.40;;;2.40;99.90;;;;;;2086750;28;20220;-69
2023/11/28 00:47:26;;;;;;;0.90;0.40;;;2.40;99.90;;;;;;2080345;28;20629;-68
2023/11/28 00:48:27;;;;;;;0.50;0.30;;;2.40;99.90;;;;;;2088360;28;20733;-68
2023/11/28 00:49:28;;;;;;;0.30;0.30;;;2.40;99.90;;;;;;2091305;28;20220;-68
2023/11/28 00:50:29;;;;;;;0.40;0.40;;;2.40;99.90;;;;;;2090942;28;20369;-69
2023/11/28 00:51:30;;;;;;;10.05;0.82;;;2.40;99.90;;;;;;2095943;28;20238;-68
2023/11/28 00:52:30;;;;;;;0.50;0.40;;;2.40;99.90;;;;;;2095133;28;20224;-69
2023/11/28 00:53:31;;;;;;;0.57;0.40;;;2.40;99.90;;;;;;2094417;28;20238;-68
2023/11/28 00:54:32;;;;;;;1.03;0.60;;;2.40;99.90;;;;;;2095297;28;20262;-68
2023/11/28 00:55:32;;;;;;;0.30;0.30;;;2.40;99.90;;;;;;2078794;28;20259;-69
2023/11/28 00:56:33;;;;;;;0.20;0.20;;;2.40;99.90;;;;;;2078618;28;20236;-68
2023/11/28 00:57:34;;;;;;;0.20;0.20;;;2.40;99.90;;;;;;2095066;28;20230;-68
2023/11/28 00:58:35;;;;;;;0.50;0.50;;;2.40;99.90;;;;;;2093207;28;20689;-68
2023/11/28 00:59:36;;;;;;;0.47;0.40;;;2.50;99.90;;;;;;2095083;28;20226;-68
2023/11/28 01:00:37;;;;;;;0.40;0.40;;;2.50;99.90;;;;;;2091857;28;20237;-69
2023/11/28 01:01:38;;;;;;;0.68;0.50;;;2.60;99.90;;;;;;2092350;28;20231;-69
2023/11/28 01:02:40;;;;;;;0.33;0.33;;;2.50;99.90;;;;;;2095078;28;20257;-69
2023/11/28 01:03:40;;;;;;;0.90;0.50;;;2.50;99.90;;;;;;2086983;28;20299;-68
2023/11/28 01:04:41;;;;;;;0.50;0.50;;;2.50;99.90;;;;;;2080835;28;20220;-68
2023/11/28 01:05:42;;;;;;;0.50;0.50;;;2.50;99.90;;;;;;2086800;28;20244;-68
2023/11/28 01:06:43;;;;;;;0.50;0.50;;;2.40;99.90;;;;;;2093671;28;20590;-68
2023/11/28 01:07:43;;;;;;;0.40;0.40;;;2.50;99.90;;;;;;2101969;28;20224;-69
2023/11/28 01:08:44;;;;;;;0.50;0.50;;;2.50;99.90;;;;;;2093014;28;20333;-68
2023/11/28 01:09:45;;;;;;;0.30;0.30;;;2.50;99.90;;;;;;2080379;28;20211;-68
2023/11/28 01:10:45;;;;;;;0.33;0.33;;;2.50;99.90;;;;;;2079650;28;20219;-68
2023/11/28 01:11:46;;;;;;;0.30;0.30;;;2.50;99.90;;;;;;2078620;28;20224;-68
2023/11/28 01:12:47;;;;;;;1.43;0.60;;;2.50;99.90;;;;;;2085765;28;20231;-68
2023/11/28 01:13:48;;;;;;;1.13;0.60;;;2.50;99.90;;;;;;2091954;28;20298;-69
2023/11/28 01:14:49;;;;;;;0.50;0.50;;;2.50;99.90;;;;;;2079295;28;20227;-69
2023/11/28 01:15:49;;;;;;;0.40;0.40;;;2.50;99.90;;;;;;2094572;28;20281;-69
2023/11/28 01:16:50;;;;;;;0.50;0.40;;;2.50;99.90;;;;;;2082870;28;20228;-70
2023/11/28 01:17:51;;;;;;;0.40;0.40;;;2.50;99.90;;;;;;2070679;28;20185;-69
2023/11/28 01:18:51;;;;;;;0.30;0.30;;;2.40;99.90;;;;;;2072577;28;20188;-69
2023/11/28 01:19:52;;;;;;;1.20;0.40;;;2.40;99.90;;;;;;2072974;28;20184;-68
2023/11/28 01:20:53;;;;;;;0.40;0.40;;;2.40;99.90;;;;;;2075231;28;20174;-68
2023/11/28 01:21:53;;;;;;;0.40;0.40;;;2.50;99.90;;;;;;2081997;28;20197;-68
2023/11/28 01:22:54;;;;;;;0.60;0.60;;;2.50;99.90;;;;;;2082903;28;20187;-69
2023/11/28 01:23:55;;;;;;;0.40;0.40;;;2.60;99.90;;;;;;2090256;28;20210;-69
2023/11/28 01:24:57;;;;;;;0.20;0.20;;;2.60;99.90;;;;;;2095756;28;20179;-69
2023/11/28 01:25:57;;;;;;;0.30;0.30;;;2.60;99.90;;;;;;2085018;28;20191;-69
2023/11/28 01:26:58;;;;;;;0.40;0.40;;;2.60;99.90;;;;;;2077998;28;20256;-68
2023/11/28 01:27:59;;;;;;;0.40;0.40;;;2.70;99.90;;;;;;2086240;28;20583;-69
2023/11/28 01:29:00;;;;;;;0.57;0.40;;;2.60;99.90;;;;;;2096448;28;20711;-68
2023/11/28 01:30:01;;;;;;;0.30;0.30;;;2.70;99.90;;;;;;2093142;28;20547;-68
2023/11/28 01:31:01;;;;;;;0.40;0.40;;;2.70;99.90;;;;;;2095673;28;20193;-69
2023/11/28 01:32:03;;;;;;;0.33;0.33;;;2.80;99.90;;;;;;2091986;28;20188;-68
2023/11/28 01:33:04;;;;;;;1.70;0.40;;;2.80;99.90;;;;;;2092782;28;20218;-68
2023/11/28 01:34:04;;;;;;;0.40;0.40;;;2.80;99.90;;;;;;2092451;28;20183;-68
2023/11/28 01:35:05;;;;;;;0.50;0.50;;;2.70;99.90;;;;;;2092155;28;20523;-68
2023/11/28 01:36:07;;;;;;;0.47;0.47;;;2.70;99.90;;;;;;2095198;28;20266;-68
2023/11/28 01:37:08;;;;;;;1.20;0.40;;;2.70;99.90;;;;;;2093855;28;20176;-68
2023/11/28 01:38:09;;;;;;;0.45;0.45;;;2.70;99.90;;;;;;2093619;28;20194;-68
2023/11/28 01:39:10;;;;;;;0.50;0.50;;;2.70;99.90;;;;;;2093120;28;20267;-68
2023/11/28 01:40:12;;;;;;;0.43;0.43;;;2.70;99.90;;;;;;2091692;28;20315;-68
2023/11/28 01:41:13;;;;;;;0.55;0.43;;;2.70;99.90;;;;;;2075370;28;20295;-68
2023/11/28 01:42:14;;;;;;;0.60;0.60;;;2.70;99.90;;;;;;2071882;28;20239;-68
2023/11/28 01:43:27;;;;;;;0.70;0.43;;;2.70;99.90;;;;;;2090443;28;20239;-68
2023/11/28 01:44:28;;;;;;;0.40;0.40;;;2.70;99.90;;;;;;2087052;28;20235;-68
2023/11/28 01:45:28;;;;;;;0.40;0.40;;;2.70;99.90;;;;;;2087956;28;20229;-68
2023/11/28 01:46:34;;;;;;;0.40;0.40;;;2.70;99.90;;;;;;2085768;28;20247;-68
2023/11/28 01:47:35;;;;;;;0.55;0.55;;;2.70;99.90;;;;;;2087717;28;20277;-68
2023/11/28 01:48:36;;;;;;;0.57;0.53;;;2.70;99.90;;;;;;2087328;28;20318;-69
2023/11/28 01:49:37;;;;;;;0.40;0.40;;;2.70;99.90;;;;;;2091230;28;20464;-68
2023/11/28 01:50:38;;;;;;;0.40;0.40;;;2.70;99.90;;;;;;2082000;28;20247;-68
2023/11/28 01:51:39;;;;;;;0.40;0.40;;;2.80;99.90;;;;;;2085397;28;21023;-68
2023/11/28 01:52:40;;;;;;;0.40;0.40;;;2.70;99.90;;;;;;2084833;28;20659;-68
2023/11/28 01:53:40;;;;;;;0.77;0.57;;;2.80;99.90;;;;;;2095707;28;20243;-69
2023/11/28 01:54:43;;;;;;;0.43;0.43;;;2.80;99.90;;;;;;2092086;28;20719;-68
2023/11/28 01:55:44;;;;;;;0.50;0.50;;;2.80;99.90;;;;;;2088431;28;20721;-68
2023/11/28 01:56:45;;;;;;;0.40;0.40;;;2.80;99.90;;;;;;2096466;28;20233;-68
2023/11/28 01:57:48;;;;;;;0.43;0.40;;;2.80;99.90;;;;;;2094933;28;20227;-68
2023/11/28 01:58:51;;;;;;;0.40;0.40;;;2.80;99.90;;;;;;2086283;28;20348;-68
2023/11/28 01:59:52;;;;;;;0.35;0.35;;;2.80;99.90;;;;;;2084807;28;20220;-69
2023/11/28 02:00:53;;;;;;;0.40;0.40;;;2.80;99.90;;;;;;2086835;28;20180;-69
2023/11/28 02:01:55;;;;;;;0.40;0.40;;;2.80;99.90;;;;;;2085109;28;20270;-68
2023/11/28 02:03:00;;;;;;;0.40;0.40;;;2.80;99.90;;;;;;2095323;28;20215;-68
2023/11/28 02:04:00;;;;;;;0.40;0.40;;;2.70;99.90;;;;;;2086415;28;20192;-68
2023/11/28 02:05:02;;;;;;;0.40;0.40;;;2.80;99.90;;;;;;2079158;28;20188;-68
2023/11/28 02:06:03;;;;;;;0.50;0.40;;;2.80;99.90;;;;;;2095410;28;20187;-68
2023/11/28 02:07:04;;;;;;;0.50;0.50;;;2.80;99.90;;;;;;2094374;28;20637;-68
2023/11/28 02:08:07;;;;;;;0.40;0.40;;;2.80;99.90;;;;;;2082606;28;20203;-68
2023/11/28 02:09:08;;;;;;;0.40;0.40;;;2.90;99.90;;;;;;2078308;28;20243;-68
2023/11/28 02:10:10;;;;;;;0.40;0.40;;;3.00;99.90;;;;;;2079580;28;20196;-69
2023/11/28 02:11:12;;;;;;;0.40;0.40;;;3.00;99.90;;;;;;2084452;28;20227;-68
2023/11/28 02:12:13;;;;;;;0.50;0.50;;;3.10;99.90;;;;;;2090904;28;20227;-68
2023/11/28 02:13:13;;;;;;;0.40;0.40;;;3.10;99.90;;;;;;2078035;28;20307;-69
2023/11/28 02:14:14;;;;;;;1.13;0.50;;;3.20;99.90;;;;;;2086213;28;20939;-69
2023/11/28 02:15:15;;;;;;;0.70;0.50;;;3.20;99.90;;;;;;2090516;28;20296;-69
2023/11/28 02:16:17;;;;;;;0.30;0.30;;;3.10;99.90;;;;;;2090030;28;20725;-69
2023/11/28 02:17:17;;;;;;;0.40;0.40;;;3.20;99.90;;;;;;2099226;28;20739;-68
2023/11/28 02:18:18;;;;;;;0.30;0.30;;;3.10;99.90;;;;;;2091738;28;20227;-69
2023/11/28 02:19:19;;;;;;;0.30;0.30;;;3.10;99.90;;;;;;2095200;28;20242;-68
2023/11/28 02:20:19;;;;;;;0.43;0.43;;;3.10;99.90;;;;;;2087121;28;20352;-69
2023/11/28 02:21:20;;;;;;;0.40;0.40;;;3.10;99.90;;;;;;2091421;28;20231;-68
2023/11/28 02:22:21;;;;;;;0.30;0.30;;;3.10;99.90;;;;;;2086683;28;20281;-68
2023/11/28 02:23:21;;;;;;;0.30;0.30;;;3.10;99.90;;;;;;2089780;28;20236;-69
2023/11/28 02:24:23;;;;;;;0.90;0.50;;;3.10;99.90;;;;;;2082698;28;20228;-69
2023/11/28 02:25:27;;;;;;;0.40;0.40;;;3.10;99.90;;;;;;2092059;28;20250;-69
2023/11/28 02:26:28;;;;;;;0.40;0.40;;;3.00;99.90;;;;;;2078363;28;20399;-68
2023/11/28 02:27:29;;;;;;;1.50;0.30;;;3.00;99.90;;;;;;2072732;28;20372;-69
2023/11/28 02:28:29;;;;;;;0.40;0.40;;;3.00;99.90;;;;;;2084091;28;20290;-68
2023/11/28 02:29:30;;;;;;;0.30;0.30;;;3.00;99.90;;;;;;2076966;28;20262;-68
2023/11/28 02:30:31;;;;;;;0.40;0.40;;;3.10;99.90;;;;;;2073553;28;20235;-69
2023/11/28 02:31:33;;;;;;;0.30;0.30;;;3.10;99.90;;;;;;2083492;28;20374;-69
2023/11/28 02:32:33;;;;;;;0.35;0.35;;;3.20;99.90;;;;;;2078380;28;20614;-69
2023/11/28 02:33:34;;;;;;;0.40;0.40;;;3.20;99.90;;;;;;2085847;28;20318;-69
2023/11/28 02:34:35;;;;;;;0.40;0.40;;;3.10;99.90;;;;;;2085571;28;20737;-68
2023/11/28 02:35:35;;;;;;;0.83;0.40;;;3.20;99.90;;;;;;2088039;28;20354;-69
2023/11/28 02:36:36;;;;;;;0.30;0.30;;;3.20;99.90;;;;;;2087053;28;20327;-69
2023/11/28 02:37:37;;;;;;;0.30;0.30;;;3.20;99.90;;;;;;2087898;28;20255;-68
2023/11/28 02:38:37;;;;;;;0.40;0.40;;;3.20;99.90;;;;;;2093038;28;20268;-69
2023/11/28 02:39:38;;;;;;;0.40;0.40;;;3.10;99.90;;;;;;2087160;28;20750;-69
2023/11/28 02:40:39;;;;;;;0.43;0.40;;;3.10;99.90;;;;;;2080718;28;20343;-69
2023/11/28 02:41:39;;;;;;;0.87;0.30;;;3.10;99.90;;;;;;2088959;28;20255;-68
2023/11/28 02:42:40;;;;;;;0.30;0.30;;;3.20;99.90;;;;;;2083536;28;20267;-68
2023/11/28 02:43:41;;;;;;;0.77;0.70;;;3.20;99.90;;;;;;2082571;28;20239;-69
2023/11/28 02:44:43;;;;;;;0.27;0.27;;;3.20;99.90;;;;;;2083039;28;20224;-68
2023/11/28 02:45:44;;;;;;;0.22;0.22;;;3.20;99.90;;;;;;2077701;28;20241;-69
2023/11/28 02:46:45;;;;;;;1.08;0.50;;;3.20;99.90;;;;;;2083863;28;20758;-69
2023/11/28 02:47:46;;;;;;;0.33;0.33;;;3.20;99.90;;;;;;2085104;28;20258;-68
2023/11/28 02:48:47;;;;;;;0.30;0.30;;;3.10;99.90;;;;;;2074547;28;20583;-69
2023/11/28 02:49:48;;;;;;;0.30;0.30;;;3.10;99.90;;;;;;2083807;28;20230;-69
2023/11/28 02:50:49;;;;;;;0.30;0.30;;;3.10;99.90;;;;;;2091472;28;20685;-69
2023/11/28 02:51:49;;;;;;;0.40;0.40;;;3.10;99.90;;;;;;2094826;28;20229;-69
2023/11/28 02:52:50;;;;;;;1.23;0.30;;;3.10;99.90;;;;;;2086506;28;20223;-69
2023/11/28 02:53:51;;;;;;;0.40;0.40;;;3.10;99.90;;;;;;2091214;28;20223;-69
2023/11/28 02:54:52;;;;;;;0.30;0.30;;;3.10;99.90;;;;;;2092126;28;20176;-69
2023/11/28 02:55:52;;;;;;;1.00;0.50;;;3.00;99.90;;;;;;2097304;28;20207;-69
2023/11/28 02:56:53;;;;;;;0.30;0.30;;;3.00;99.90;;;;;;2091094;28;20240;-69
2023/11/28 02:57:54;;;;;;;0.22;0.22;;;3.00;99.90;;;;;;2090540;28;20205;-69
2023/11/28 02:58:56;;;;;;;0.30;0.30;;;3.00;99.90;;;;;;2090725;28;20215;-69
2023/11/28 02:59:57;;;;;;;1.88;0.40;;;2.90;99.90;;;;;;2091228;28;20322;-69
2023/11/28 03:00:58;;;;;;;0.30;0.30;;;3.00;99.90;;;;;;2089023;28;20314;-69
2023/11/28 03:01:59;;;;;;;1.20;0.30;;;2.90;99.90;;;;;;2086020;28;20188;-69
2023/11/28 03:03:00;;;;;;;0.52;0.30;;;2.90;99.90;;;;;;2090340;28;20267;-69
2023/11/28 03:04:00;;;;;;;0.20;0.20;;;2.90;99.90;;;;;;2081341;28;20176;-69
2023/11/28 03:05:06;;;;;;;0.20;0.20;;;2.80;99.90;;;;;;2068250;28;20244;-68
2023/11/28 03:06:07;;;;;;;1.05;0.93;;;2.80;99.90;;;;;;2070296;28;20628;-69
2023/11/28 03:07:08;;;;;;;0.40;0.40;;;2.70;99.90;;;;;;2085280;28;20195;-69
2023/11/28 03:08:09;;;;;;;0.30;0.30;;;2.70;99.90;;;;;;2083729;28;20218;-69
2023/11/28 03:09:10;;;;;;;0.30;0.30;;;2.80;99.90;;;;;;2078516;28;20278;-69
2023/11/28 03:10:10;;;;;;;0.47;0.47;;;2.70;99.90;;;;;;2072658;28;20264;-69
2023/11/28 03:11:12;;;;;;;0.40;0.40;;;2.70;99.90;;;;;;2080019;28;20243;-69
2023/11/28 03:12:12;;;;;;;0.30;0.30;;;2.70;99.90;;;;;;2090399;28;20231;-69
2023/11/28 03:13:13;;;;;;;0.70;0.70;;;2.70;99.90;;;;;;2090968;28;20298;-69
2023/11/28 03:14:20;;;;;;;0.50;0.50;;;2.80;99.90;;;;;;2084605;28;20647;-69
2023/11/28 03:15:21;;;;;;;0.30;0.30;;;2.90;99.90;;;;;;2084396;28;20223;-69
2023/11/28 03:16:21;;;;;;;0.50;0.50;;;2.90;99.90;;;;;;2095107;28;20227;-69
2023/11/28 03:17:22;;;;;;;0.40;0.40;;;2.90;99.90;;;;;;2082888;28;20319;-69
2023/11/28 03:18:23;;;;;;;0.43;0.37;;;2.90;99.90;;;;;;2070276;28;20606;-69
2023/11/28 03:19:24;;;;;;;0.60;0.60;;;2.90;99.90;;;;;;2078294;28;20240;-69
2023/11/28 03:20:25;;;;;;;0.52;0.52;;;2.90;99.90;;;;;;2085993;28;20230;-69
2023/11/28 03:21:25;;;;;;;1.07;0.60;;;2.90;99.90;;;;;;2070298;28;20624;-69
2023/11/28 03:22:26;;;;;;;0.30;0.30;;;2.80;99.90;;;;;;2078866;28;20239;-69
2023/11/28 03:23:27;;;;;;;0.80;0.80;;;2.90;99.90;;;;;;2085812;28;20306;-70
2023/11/28 03:24:28;;;;;;;0.90;0.80;;;2.90;99.90;;;;;;2089300;28;20710;-69
2023/11/28 03:25:28;;;;;;;0.50;0.50;;;2.90;99.90;;;;;;2084782;28;20248;-69
2023/11/28 03:26:29;;;;;;;1.90;1.20;;;2.90;99.90;;;;;;2086887;28;20259;-69
2023/11/28 03:27:30;;;;;;;1.43;1.00;;;2.90;99.90;;;;;;2074412;28;20278;-69
2023/11/28 03:28:30;;;;;;;1.00;0.70;;;2.90;99.90;;;;;;2070130;28;20229;-69
2023/11/28 03:29:31;;;;;;;0.63;0.63;;;2.90;99.90;;;;;;2069818;28;20241;-69
2023/11/28 03:30:32;;;;;;;0.50;0.50;;;2.90;99.90;;;;;;2076233;28;20254;-69
2023/11/28 03:31:32;;;;;;;0.33;0.33;;;2.90;99.90;;;;;;2078673;28;20228;-69
2023/11/28 03:32:34;;;;;;;0.70;0.70;;;2.90;99.90;;;;;;2077727;28;20236;-69
2023/11/28 03:33:34;;;;;;;0.75;0.50;;;2.90;99.90;;;;;;2086517;28;20611;-69
2023/11/28 03:34:36;;;;;;;1.27;0.80;;;2.90;99.90;;;;;;2094719;28;20265;-69
2023/11/28 03:35:37;;;;;;;1.08;0.85;;;2.90;99.90;;;;;;2094186;28;20690;-69
2023/11/28 03:36:38;;;;;;;0.70;0.60;;;2.90;99.90;;;;;;2083953;28;20223;-70
2023/11/28 03:37:38;;;;;;;0.40;0.40;;;2.90;99.90;;;;;;2080724;28;20724;-69
2023/11/28 03:38:39;;;;;;;0.40;0.40;;;2.90;99.90;;;;;;2077573;28;20278;-69
2023/11/28 03:39:42;;;;;;;0.40;0.40;;;2.90;99.90;;;;;;2084119;28;20231;-70
2023/11/28 03:40:43;;;;;;;0.40;0.40;;;2.90;99.90;;;;;;2077015;28;20321;-69
2023/11/28 03:41:48;;;;;;;0.30;0.30;;;2.90;99.90;;;;;;2066553;28;20792;-69
2023/11/28 03:42:48;;;;;;;0.30;0.30;;;2.90;99.90;;;;;;2078555;28;20228;-69
2023/11/28 03:43:49;;;;;;;0.30;0.30;;;2.90;99.90;;;;;;2086433;28;20261;-70
2023/11/28 03:44:50;;;;;;;0.30;0.30;;;2.90;99.90;;;;;;2092676;28;20736;-70
2023/11/28 03:45:50;;;;;;;0.40;0.40;;;2.90;99.90;;;;;;2085442;28;20176;-70
2023/11/28 03:46:51;;;;;;;0.40;0.40;;;3.00;99.90;;;;;;2095183;28;20267;-70
2023/11/28 03:47:52;;;;;;;0.30;0.30;;;3.00;99.90;;;;;;2092422;28;20304;-70
2023/11/28 03:48:53;;;;;;;0.60;0.50;;;3.00;99.90;;;;;;2084646;28;20275;-70
2023/11/28 03:49:54;;;;;;;0.90;0.70;;;3.00;99.90;;;;;;2086068;28;20184;-70
2023/11/28 03:50:55;;;;;;;0.40;0.40;;;3.00;99.90;;;;;;2085715;28;20263;-69
2023/11/28 03:51:55;;;;;;;0.50;0.50;;;3.00;99.90;;;;;;2075682;28;20176;-69
2023/11/28 03:52:56;;;;;;;0.67;0.63;;;3.00;99.90;;;;;;2082536;28;20176;-69
2023/11/28 03:53:57;;;;;;;0.90;0.60;;;2.90;99.90;;;;;;2086075;28;20668;-69
2023/11/28 03:54:57;;;;;;;0.50;0.50;;;2.80;99.90;;;;;;2091165;28;20181;-70
2023/11/28 03:56:08;;;;;;;0.50;0.50;;;2.80;99.90;;;;;;2086742;28;20230;-69
2023/11/28 03:57:08;;;;;;;0.40;0.40;;;2.80;99.90;;;;;;2079119;28;20188;-69
2023/11/28 03:58:09;;;;;;;0.50;0.50;;;2.80;99.90;;;;;;2078426;28;20227;-69
2023/11/28 03:59:10;;;;;;;0.40;0.40;;;2.70;99.90;;;;;;2077862;28;20280;-69
2023/11/28 04:00:11;;;;;;;0.40;0.40;;;2.70;99.90;;;;;;2081522;28;20303;-69
2023/11/28 04:01:13;;;;;;;0.50;0.50;;;2.80;99.90;;;;;;2070221;28;20600;-69
2023/11/28 04:02:13;;;;;;;0.30;0.30;;;2.80;99.90;;;;;;2078439;28;20321;-69
2023/11/28 04:03:14;;;;;;;0.50;0.50;;;2.80;99.90;;;;;;2086126;28;20220;-69
2023/11/28 04:04:15;;;;;;;0.60;0.60;;;2.80;99.90;;;;;;2080223;28;20264;-69
2023/11/28 04:05:17;;;;;;;0.40;0.40;;;2.80;99.90;;;;;;2078837;28;20251;-70
2023/11/28 04:06:18;;;;;;;0.30;0.30;;;2.80;99.90;;;;;;2086155;28;20665;-70
2023/11/28 04:07:19;;;;;;;0.40;0.40;;;2.80;99.90;;;;;;2085732;28;20303;-70
2023/11/28 04:08:20;;;;;;;0.30;0.30;;;2.80;99.90;;;;;;2094224;28;20713;-70
2023/11/28 04:09:21;;;;;;;0.90;0.70;;;2.80;99.90;;;;;;2086421;28;20315;-70
2023/11/28 04:10:21;;;;;;;0.30;0.30;;;2.80;99.90;;;;;;2089945;28;20780;-69
2023/11/28 04:11:22;;;;;;;0.77;0.50;;;2.80;99.90;;;;;;2090177;28;20239;-69
2023/11/28 04:12:24;;;;;;;1.10;0.40;;;2.80;99.90;;;;;;2088859;28;20234;-70
2023/11/28 04:13:24;;;;;;;0.80;0.40;;;2.80;99.90;;;;;;2089110;28;20228;-69
2023/11/28 04:14:25;;;;;;;0.40;0.40;;;2.80;99.90;;;;;;2088531;28;20234;-70
2023/11/28 04:15:26;;;;;;;0.40;0.40;;;2.80;99.90;;;;;;2091691;28;20231;-69
2023/11/28 04:16:26;;;;;;;0.60;0.60;;;2.90;99.90;;;;;;2081218;28;20240;-69
2023/11/28 04:17:27;;;;;;;0.50;0.50;;;2.80;99.90;;;;;;2072137;28;20260;-69
2023/11/28 04:18:30;;;;;;;0.60;0.60;;;2.80;99.90;;;;;;2078271;28;20241;-70
2023/11/28 04:19:31;;;;;;;0.60;0.60;;;2.70;99.90;;;;;;2082232;28;20666;-69
2023/11/28 04:20:32;;;;;;;0.40;0.40;;;2.70;99.90;;;;;;2082573;28;20223;-69
2023/11/28 04:21:32;;;;;;;1.10;0.73;;;2.70;99.90;;;;;;2076711;28;20595;-70
2023/11/28 04:22:33;;;;;;;0.40;0.40;;;2.70;99.90;;;;;;2074773;28;20240;-69
2023/11/28 04:23:34;;;;;;;0.30;0.30;;;2.70;99.90;;;;;;2081893;28;20634;-70
2023/11/28 04:24:36;;;;;;;0.30;0.30;;;2.70;99.90;;;;;;2086936;28;20315;-70
2023/11/28 04:25:37;;;;;;;0.30;0.30;;;2.70;99.90;;;;;;2085927;28;20239;-69
2023/11/28 04:26:41;;;;;;;0.30;0.30;;;2.70;99.90;;;;;;2079346;28;20248;-70
2023/11/28 04:27:41;;;;;;;0.70;0.35;;;2.70;99.90;;;;;;2090212;28;20241;-70
2023/11/28 04:28:42;;;;;;;0.83;0.70;;;2.80;99.90;;;;;;2094772;28;20235;-70
2023/11/28 04:29:43;;;;;;;0.53;0.53;;;2.80;99.90;;;;;;2087305;28;20231;-69
2023/11/28 04:30:43;;;;;;;0.40;0.40;;;2.70;99.90;;;;;;2086779;28;20811;-68
2023/11/28 04:31:44;;;;;;;0.50;0.50;;;2.60;99.90;;;;;;2091699;28;20224;-69
2023/11/28 04:32:45;;;;;;;0.80;0.67;;;2.60;99.90;;;;;;2082760;28;20816;-69
2023/11/28 04:33:46;;;;;;;0.30;0.30;;;2.60;99.90;;;;;;2086828;28;20233;-69
2023/11/28 04:34:47;;;;;;;0.30;0.30;;;2.60;99.90;;;;;;2085887;28;20759;-69
2023/11/28 04:35:47;;;;;;;0.20;0.20;;;2.60;99.90;;;;;;2091354;28;20277;-69
2023/11/28 04:36:48;;;;;;;0.30;0.30;;;2.60;99.90;;;;;;2086739;28;20273;-69
2023/11/28 04:37:49;;;;;;;0.30;0.30;;;2.60;99.90;;;;;;2078307;28;20317;-70
2023/11/28 04:38:50;;;;;;;0.20;0.20;;;2.70;99.90;;;;;;2086561;28;20231;-70
2023/11/28 04:39:51;;;;;;;0.28;0.28;;;2.70;99.90;;;;;;2082781;28;20216;-70
2023/11/28 04:40:52;;;;;;;1.77;0.75;;;2.70;99.90;;;;;;2089936;28;20222;-69
2023/11/28 04:41:53;;;;;;;0.83;0.30;;;2.70;99.90;;;;;;2086162;28;20621;-69
2023/11/28 04:42:53;;;;;;;0.30;0.30;;;2.70;99.90;;;;;;2090332;28;20697;-69
2023/11/28 04:43:54;;;;;;;0.80;0.50;;;2.70;99.90;;;;;;2094781;28;20182;-68
2023/11/28 04:44:55;;;;;;;0.60;0.60;;;2.70;99.90;;;;;;2081294;28;20640;-69
2023/11/28 04:45:55;;;;;;;0.47;0.40;;;2.70;99.90;;;;;;2083034;28;20184;-69
2023/11/28 04:46:56;;;;;;;0.50;0.50;;;2.60;99.90;;;;;;2080885;28;20189;-69
2023/11/28 04:47:57;;;;;;;0.73;0.50;;;2.50;99.90;;;;;;2086979;28;20686;-68
2023/11/28 04:48:57;;;;;;;0.40;0.40;;;2.40;99.90;;;;;;2078286;28;20192;-69
2023/11/28 04:49:58;;;;;;;0.30;0.30;;;2.40;99.90;;;;;;2083742;28;20191;-69
2023/11/28 04:50:59;;;;;;;0.30;0.30;;;2.40;99.90;;;;;;2080593;28;20613;-68
2023/11/28 04:52:00;;;;;;;0.20;0.20;;;2.40;99.90;;;;;;2077455;28;20188;-68
2023/11/28 04:53:00;;;;;;;0.20;0.20;;;2.40;99.90;;;;;;2084475;28;20474;-69
2023/11/28 04:54:01;;;;;;;0.40;0.40;;;2.50;99.90;;;;;;2081791;28;20679;-69
2023/11/28 04:55:03;;;;;;;0.30;0.30;;;2.50;99.90;;;;;;2081018;28;20272;-69
2023/11/28 04:56:06;;;;;;;1.02;0.60;;;2.50;99.90;;;;;;2076240;28;20188;-70
2023/11/28 04:57:07;;;;;;;0.45;0.45;;;2.40;99.90;;;;;;2078621;28;20242;-69
2023/11/28 04:58:08;;;;;;;0.50;0.50;;;2.50;99.90;;;;;;2082403;28;20222;-69
2023/11/28 04:59:10;;;;;;;1.25;0.88;;;2.50;99.90;;;;;;2084840;28;20443;-69
2023/11/28 05:00:11;;;;;;;1.67;1.20;;;2.50;99.90;;;;;;2086972;28;20234;-68
2023/11/28 05:01:12;;;;;;;2.03;0.90;;;2.40;99.90;;;;;;2078011;28;20243;-69
2023/11/28 05:02:14;;;;;;;0.43;0.40;;;2.40;99.90;;;;;;2079352;28;20231;-69
2023/11/28 05:03:14;;;;;;;0.30;0.30;;;2.40;99.90;;;;;;2086059;28;20259;-69
2023/11/28 05:04:15;;;;;;;0.50;0.50;;;2.40;99.90;;;;;;2083037;28;20223;-68
2023/11/28 05:05:16;;;;;;;0.47;0.47;;;2.50;99.90;;;;;;2087582;28;20228;-69
2023/11/28 05:06:17;;;;;;;0.43;0.43;;;2.50;99.90;;;;;;2093800;28;21004;-68
2023/11/28 05:07:18;;;;;;;1.42;0.80;;;2.50;99.90;;;;;;2093902;28;20242;-69
2023/11/28 05:08:19;;;;;;;0.50;0.50;;;2.50;99.90;;;;;;2090210;28;20230;-69
2023/11/28 05:09:20;;;;;;;0.37;0.37;;;2.50;99.90;;;;;;2083722;28;20240;-69
2023/11/28 05:10:20;;;;;;;0.60;0.60;;;2.50;99.90;;;;;;2088006;28;20247;-69
2023/11/28 05:11:21;;;;;;;0.30;0.30;;;2.50;99.90;;;;;;2091789;28;20231;-68
2023/11/28 05:12:23;;;;;;;0.40;0.40;;;2.50;99.90;;;;;;2082927;28;20232;-69
2023/11/28 05:13:24;;;;;;;0.40;0.40;;;2.50;99.90;;;;;;2081885;28;20231;-69
2023/11/28 05:14:24;;;;;;;1.30;0.30;;;2.50;99.90;;;;;;2090968;28;20244;-69
2023/11/28 05:15:25;;;;;;;0.40;0.40;;;2.50;99.90;;;;;;2093380;28;20720;-69
2023/11/28 05:16:26;;;;;;;5.47;2.77;;;2.50;99.90;;;;;;2087892;28;20264;-69
2023/11/28 05:17:27;;;;;;;1.33;0.97;;;2.50;99.90;;;;;;2085683;28;20322;-69
2023/11/28 05:18:28;;;;;;;2.80;1.20;;;2.60;99.90;;;;;;2085656;28;20233;-69
2023/11/28 05:19:28;;;;;;;1.50;0.80;;;2.60;99.90;;;;;;2077102;28;20237;-69
2023/11/28 05:20:29;;;;;;;0.80;0.60;;;2.60;99.90;;;;;;2078831;28;20236;-69
2023/11/28 05:21:30;;;;;;;2.03;0.80;;;2.60;99.90;;;;;;2085643;28;20690;-69
2023/11/28 05:22:30;;;;;;;0.80;0.60;;;2.60;99.90;;;;;;2096001;28;20733;-68